sensor_id;sensor_type;location;lat;lon;timestamp;temperature;humidity
21214;DHT22;10764;50.850;2.904;2022-09-01T00:00:06;23.70;50.80
21214;DHT22;10764;50.850;2.904;2022-09-01T00:02:33;23.80;50.10
21214;DHT22;10764;50.850;2.904;2022-09-01T00:05:01;23.80;50.00
21214;DHT22;10764;50.850;2.904;2022-09-01T00:07:30;23.70;49.90
21214;DHT22;10764;50.850;2.904;2022-09-01T00:09:58;23.80;49.90
21214;DHT22;10764;50.850;2.904;2022-09-01T00:12:26;23.80;49.90
21214;DHT22;10764;50.850;2.904;2022-09-01T00:14:53;23.80;49.90
21214;DHT22;10764;50.850;2.904;2022-09-01T00:17:20;23.70;49.80
21214;DHT22;10764;50.850;2.904;2022-09-01T00:19:47;23.70;49.70
21214;DHT22;10764;50.850;2.904;2022-09-01T00:22:15;23.80;49.70
21214;DHT22;10764;50.850;2.904;2022-09-01T00:24:42;23.80;49.70
21214;DHT22;10764;50.850;2.904;2022-09-01T00:27:09;23.80;49.70
21214;DHT22;10764;50.850;2.904;2022-09-01T00:32:09;23.70;49.60
21214;DHT22;10764;50.850;2.904;2022-09-01T00:34:36;23.80;49.50
21214;DHT22;10764;50.850;2.904;2022-09-01T00:37:03;23.80;49.50
21214;DHT22;10764;50.850;2.904;2022-09-01T00:41:57;23.70;49.40
21214;DHT22;10764;50.850;2.904;2022-09-01T00:44:26;23.80;49.40
21214;DHT22;10764;50.850;2.904;2022-09-01T00:46:57;23.80;49.30
21214;DHT22;10764;50.850;2.904;2022-09-01T00:49:46;23.70;49.30
21214;DHT22;10764;50.850;2.904;2022-09-01T00:52:21;23.70;49.30
21214;DHT22;10764;50.850;2.904;2022-09-01T00:54:55;23.70;50.00
21214;DHT22;10764;50.850;2.904;2022-09-01T00:57:24;23.60;49.20
21214;DHT22;10764;50.850;2.904;2022-09-01T01:00:06;23.70;50.20
21214;DHT22;10764;50.850;2.904;2022-09-01T01:02:33;23.70;49.30
21214;DHT22;10764;50.850;2.904;2022-09-01T01:05:03;23.70;49.30
21214;DHT22;10764;50.850;2.904;2022-09-01T01:07:30;23.70;50.00
21214;DHT22;10764;50.850;2.904;2022-09-01T01:09:58;23.70;49.30
21214;DHT22;10764;50.850;2.904;2022-09-01T01:12:26;23.70;49.30
21214;DHT22;10764;50.850;2.904;2022-09-01T01:14:56;23.60;49.30
21214;DHT22;10764;50.850;2.904;2022-09-01T01:17:23;23.70;49.30
21214;DHT22;10764;50.850;2.904;2022-09-01T01:19:57;23.70;49.30
21214;DHT22;10764;50.850;2.904;2022-09-01T01:23:15;23.60;50.00
21214;DHT22;10764;50.850;2.904;2022-09-01T01:28:23;23.60;49.30
21214;DHT22;10764;50.850;2.904;2022-09-01T01:30:59;23.60;49.30
21214;DHT22;10764;50.850;2.904;2022-09-01T01:36:31;23.70;49.90
21214;DHT22;10764;50.850;2.904;2022-09-01T01:41:31;23.60;49.30
21214;DHT22;10764;50.850;2.904;2022-09-01T01:43:59;23.60;49.30
21214;DHT22;10764;50.850;2.904;2022-09-01T01:46:27;23.60;49.30
21214;DHT22;10764;50.850;2.904;2022-09-01T01:48:55;23.60;49.30
21214;DHT22;10764;50.850;2.904;2022-09-01T01:51:22;23.70;49.30
21214;DHT22;10764;50.850;2.904;2022-09-01T01:53:54;23.70;49.40
21214;DHT22;10764;50.850;2.904;2022-09-01T01:56:23;23.50;49.20
21214;DHT22;10764;50.850;2.904;2022-09-01T01:58:52;23.70;49.30
21214;DHT22;10764;50.850;2.904;2022-09-01T02:01:23;23.60;49.30
21214;DHT22;10764;50.850;2.904;2022-09-01T02:03:51;23.70;49.30
21214;DHT22;10764;50.850;2.904;2022-09-01T02:06:22;23.70;49.30
21214;DHT22;10764;50.850;2.904;2022-09-01T02:11:29;23.60;49.20
21214;DHT22;10764;50.850;2.904;2022-09-01T02:13:59;23.60;49.20
21214;DHT22;10764;50.850;2.904;2022-09-01T02:16:28;23.70;49.20
21214;DHT22;10764;50.850;2.904;2022-09-01T02:18:56;24.50;49.60
21214;DHT22;10764;50.850;2.904;2022-09-01T02:21:24;23.60;50.20
21214;DHT22;10764;50.850;2.904;2022-09-01T02:24:04;26.20;51.30
21214;DHT22;10764;50.850;2.904;2022-09-01T02:26:40;23.60;49.10
21214;DHT22;10764;50.850;2.904;2022-09-01T02:29:11;23.70;49.10
21214;DHT22;10764;50.850;2.904;2022-09-01T02:31:45;23.60;49.00
21214;DHT22;10764;50.850;2.904;2022-09-01T02:34:13;20.90;47.70
21214;DHT22;10764;50.850;2.904;2022-09-01T02:39:21;23.70;49.00
21214;DHT22;10764;50.850;2.904;2022-09-01T02:41:49;23.70;48.90
21214;DHT22;10764;50.850;2.904;2022-09-01T02:44:22;23.60;48.90
21214;DHT22;10764;50.850;2.904;2022-09-01T02:46:49;23.60;48.80
21214;DHT22;10764;50.850;2.904;2022-09-01T02:49:22;23.50;48.70
21214;DHT22;10764;50.850;2.904;2022-09-01T02:51:55;23.60;48.70
21214;DHT22;10764;50.850;2.904;2022-09-01T02:54:25;23.50;49.30
21214;DHT22;10764;50.850;2.904;2022-09-01T02:56:53;23.50;48.60
21214;DHT22;10764;50.850;2.904;2022-09-01T02:59:25;23.60;50.10
21214;DHT22;10764;50.850;2.904;2022-09-01T03:01:56;23.60;48.60
21214;DHT22;10764;50.850;2.904;2022-09-01T03:04:23;23.40;48.40
21214;DHT22;10764;50.850;2.904;2022-09-01T03:06:50;23.60;49.20
21214;DHT22;10764;50.850;2.904;2022-09-01T03:09:21;23.60;48.50
21214;DHT22;10764;50.850;2.904;2022-09-01T03:11:51;23.60;49.30
21214;DHT22;10764;50.850;2.904;2022-09-01T03:16:46;23.60;48.30
21214;DHT22;10764;50.850;2.904;2022-09-01T03:19:13;23.50;48.30
21214;DHT22;10764;50.850;2.904;2022-09-01T03:21:42;23.70;48.30
21214;DHT22;10764;50.850;2.904;2022-09-01T03:24:14;23.50;48.20
21214;DHT22;10764;50.850;2.904;2022-09-01T03:26:43;23.60;48.30
21214;DHT22;10764;50.850;2.904;2022-09-01T03:29:16;23.60;48.20
21214;DHT22;10764;50.850;2.904;2022-09-01T03:31:43;23.60;48.20
21214;DHT22;10764;50.850;2.904;2022-09-01T03:34:11;23.50;48.10
21214;DHT22;10764;50.850;2.904;2022-09-01T03:36:45;23.50;48.10
21214;DHT22;10764;50.850;2.904;2022-09-01T03:39:25;23.50;48.10
21214;DHT22;10764;50.850;2.904;2022-09-01T03:41:52;23.60;48.10
21214;DHT22;10764;50.850;2.904;2022-09-01T03:44:19;23.50;48.20
21214;DHT22;10764;50.850;2.904;2022-09-01T03:46:46;23.60;48.00
21214;DHT22;10764;50.850;2.904;2022-09-01T03:49:13;23.40;47.90
21214;DHT22;10764;50.850;2.904;2022-09-01T03:51:42;23.60;47.90
21214;DHT22;10764;50.850;2.904;2022-09-01T03:54:11;23.50;47.90
21214;DHT22;10764;50.850;2.904;2022-09-01T03:56:38;23.60;47.90
21214;DHT22;10764;50.850;2.904;2022-09-01T03:59:09;23.50;47.80
21214;DHT22;10764;50.850;2.904;2022-09-01T04:01:44;23.50;47.70
21214;DHT22;10764;50.850;2.904;2022-09-01T04:04:12;23.50;48.30
21214;DHT22;10764;50.850;2.904;2022-09-01T04:06:41;23.50;48.30
21214;DHT22;10764;50.850;2.904;2022-09-01T04:09:08;23.40;47.50
21214;DHT22;10764;50.850;2.904;2022-09-01T04:11:38;23.80;48.40
21214;DHT22;10764;50.850;2.904;2022-09-01T04:14:13;23.50;48.50
21214;DHT22;10764;50.850;2.904;2022-09-01T04:16:42;23.50;47.50
21214;DHT22;10764;50.850;2.904;2022-09-01T04:19:28;23.50;47.40
21214;DHT22;10764;50.850;2.904;2022-09-01T04:21:59;23.80;48.30
21214;DHT22;10764;50.850;2.904;2022-09-01T04:24:32;23.40;47.30
21214;DHT22;10764;50.850;2.904;2022-09-01T04:27:01;23.30;47.20
21214;DHT22;10764;50.850;2.904;2022-09-01T04:29:29;23.40;47.20
21214;DHT22;10764;50.850;2.904;2022-09-01T04:32:08;23.40;47.20
21214;DHT22;10764;50.850;2.904;2022-09-01T04:34:40;23.50;47.20
21214;DHT22;10764;50.850;2.904;2022-09-01T04:37:18;23.40;47.20
21214;DHT22;10764;50.850;2.904;2022-09-01T04:39:52;23.40;47.10
21214;DHT22;10764;50.850;2.904;2022-09-01T04:42:25;23.30;47.10
21214;DHT22;10764;50.850;2.904;2022-09-01T04:44:53;23.50;47.10
21214;DHT22;10764;50.850;2.904;2022-09-01T04:47:23;23.50;47.10
21214;DHT22;10764;50.850;2.904;2022-09-01T04:50:09;23.40;47.10
21214;DHT22;10764;50.850;2.904;2022-09-01T04:53:00;23.40;47.00
21214;DHT22;10764;50.850;2.904;2022-09-01T04:55:31;23.40;47.60
21214;DHT22;10764;50.850;2.904;2022-09-01T04:57:59;23.40;47.80
21214;DHT22;10764;50.850;2.904;2022-09-01T05:00:27;23.30;46.90
21214;DHT22;10764;50.850;2.904;2022-09-01T05:03:00;23.40;47.60
21214;DHT22;10764;50.850;2.904;2022-09-01T05:05:48;23.40;46.90
21214;DHT22;10764;50.850;2.904;2022-09-01T05:08:18;23.40;46.90
21214;DHT22;10764;50.850;2.904;2022-09-01T05:10:52;23.40;46.90
21214;DHT22;10764;50.850;2.904;2022-09-01T05:13:34;23.40;46.90
21214;DHT22;10764;50.850;2.904;2022-09-01T05:16:07;23.40;46.80
21214;DHT22;10764;50.850;2.904;2022-09-01T05:21:10;23.40;46.80
21214;DHT22;10764;50.850;2.904;2022-09-01T05:23:37;23.40;46.70
21214;DHT22;10764;50.850;2.904;2022-09-01T05:26:18;23.30;46.70
21214;DHT22;10764;50.850;2.904;2022-09-01T05:28:48;23.30;46.60
21214;DHT22;10764;50.850;2.904;2022-09-01T05:31:15;23.30;47.30
21214;DHT22;10764;50.850;2.904;2022-09-01T05:33:47;23.30;47.40
21214;DHT22;10764;50.850;2.904;2022-09-01T05:36:18;23.40;46.70
21214;DHT22;10764;50.850;2.904;2022-09-01T05:38:47;23.30;46.60
21214;DHT22;10764;50.850;2.904;2022-09-01T05:41:15;23.40;46.60
21214;DHT22;10764;50.850;2.904;2022-09-01T05:43:45;23.40;46.60
21214;DHT22;10764;50.850;2.904;2022-09-01T05:46:20;23.30;46.50
21214;DHT22;10764;50.850;2.904;2022-09-01T05:48:49;23.30;46.40
21214;DHT22;10764;50.850;2.904;2022-09-01T05:51:20;23.30;46.30
21214;DHT22;10764;50.850;2.904;2022-09-01T05:54:08;23.00;46.80
21214;DHT22;10764;50.850;2.904;2022-09-01T05:56:36;23.30;46.30
21214;DHT22;10764;50.850;2.904;2022-09-01T05:59:12;23.40;47.30
21214;DHT22;10764;50.850;2.904;2022-09-01T06:01:50;23.30;46.30
21214;DHT22;10764;50.850;2.904;2022-09-01T06:04:20;23.20;46.20
21214;DHT22;10764;50.850;2.904;2022-09-01T06:06:49;23.40;46.30
21214;DHT22;10764;50.850;2.904;2022-09-01T06:09:40;23.30;46.30
21214;DHT22;10764;50.850;2.904;2022-09-01T06:12:10;23.40;46.20
21214;DHT22;10764;50.850;2.904;2022-09-01T06:14:46;23.40;47.00
21214;DHT22;10764;50.850;2.904;2022-09-01T06:17:18;23.40;46.70
21214;DHT22;10764;50.850;2.904;2022-09-01T06:19:52;23.40;46.80
21214;DHT22;10764;50.850;2.904;2022-09-01T06:22:22;23.30;46.80
21214;DHT22;10764;50.850;2.904;2022-09-01T06:24:50;23.40;46.90
21214;DHT22;10764;50.850;2.904;2022-09-01T06:27:27;23.50;47.90
21214;DHT22;10764;50.850;2.904;2022-09-01T06:29:54;23.40;47.00
21214;DHT22;10764;50.850;2.904;2022-09-01T06:32:22;23.50;47.80
21214;DHT22;10764;50.850;2.904;2022-09-01T06:34:51;23.40;47.70
21214;DHT22;10764;50.850;2.904;2022-09-01T06:37:19;23.50;47.10
21214;DHT22;10764;50.850;2.904;2022-09-01T06:39:52;23.60;47.90
21214;DHT22;10764;50.850;2.904;2022-09-01T06:42:20;24.00;48.30
21214;DHT22;10764;50.850;2.904;2022-09-01T06:44:58;23.50;47.40
21214;DHT22;10764;50.850;2.904;2022-09-01T06:47:25;23.60;47.50
21214;DHT22;10764;50.850;2.904;2022-09-01T06:49:54;23.60;47.70
21214;DHT22;10764;50.850;2.904;2022-09-01T06:52:25;23.60;47.80
21214;DHT22;10764;50.850;2.904;2022-09-01T06:54:53;23.40;47.70
21214;DHT22;10764;50.850;2.904;2022-09-01T06:57:24;23.60;47.80
21214;DHT22;10764;50.850;2.904;2022-09-01T07:00:14;23.60;47.70
21214;DHT22;10764;50.850;2.904;2022-09-01T07:02:52;23.60;48.50
21214;DHT22;10764;50.850;2.904;2022-09-01T07:05:50;23.60;48.40
21214;DHT22;10764;50.850;2.904;2022-09-01T07:08:47;23.60;48.50
21214;DHT22;10764;50.850;2.904;2022-09-01T07:11:35;23.60;47.70
21214;DHT22;10764;50.850;2.904;2022-09-01T07:14:24;23.60;48.60
21214;DHT22;10764;50.850;2.904;2022-09-01T07:16:51;23.50;47.70
21214;DHT22;10764;50.850;2.904;2022-09-01T07:19:38;23.60;48.70
21214;DHT22;10764;50.850;2.904;2022-09-01T07:22:21;23.70;47.80
21214;DHT22;10764;50.850;2.904;2022-09-01T07:25:09;23.70;47.70
21214;DHT22;10764;50.850;2.904;2022-09-01T07:28:09;23.70;47.70
21214;DHT22;10764;50.850;2.904;2022-09-01T07:30:45;23.70;48.30
21214;DHT22;10764;50.850;2.904;2022-09-01T07:33:18;23.60;47.50
21214;DHT22;10764;50.850;2.904;2022-09-01T07:36:10;23.70;48.30
21214;DHT22;10764;50.850;2.904;2022-09-01T07:38:54;23.60;48.40
21214;DHT22;10764;50.850;2.904;2022-09-01T07:41:52;23.70;49.10
21214;DHT22;10764;50.850;2.904;2022-09-01T07:44:59;23.40;48.30
21214;DHT22;10764;50.850;2.904;2022-09-01T07:47:55;23.60;48.40
21214;DHT22;10764;50.850;2.904;2022-09-01T07:50:22;23.80;47.60
21214;DHT22;10764;50.850;2.904;2022-09-01T07:53:14;23.70;48.40
21214;DHT22;10764;50.850;2.904;2022-09-01T07:55:45;23.70;47.50
21214;DHT22;10764;50.850;2.904;2022-09-01T07:58:13;23.80;47.60
21214;DHT22;10764;50.850;2.904;2022-09-01T08:00:44;23.80;47.60
21214;DHT22;10764;50.850;2.904;2022-09-01T08:03:14;23.80;47.60
21214;DHT22;10764;50.850;2.904;2022-09-01T08:05:41;23.80;47.60
21214;DHT22;10764;50.850;2.904;2022-09-01T08:08:09;23.70;47.50
21214;DHT22;10764;50.850;2.904;2022-09-01T08:10:55;23.80;47.60
21214;DHT22;10764;50.850;2.904;2022-09-01T08:13:31;23.80;47.60
21214;DHT22;10764;50.850;2.904;2022-09-01T08:16:07;23.80;47.60
21214;DHT22;10764;50.850;2.904;2022-09-01T08:18:43;23.80;47.70
21214;DHT22;10764;50.850;2.904;2022-09-01T08:21:26;23.80;47.90
21214;DHT22;10764;50.850;2.904;2022-09-01T08:24:18;23.80;47.90
21214;DHT22;10764;50.850;2.904;2022-09-01T08:26:45;23.80;48.00
21214;DHT22;10764;50.850;2.904;2022-09-01T08:29:12;23.80;48.10
21214;DHT22;10764;50.850;2.904;2022-09-01T08:31:41;23.80;48.20
21214;DHT22;10764;50.850;2.904;2022-09-01T08:34:09;23.70;48.30
21214;DHT22;10764;50.850;2.904;2022-09-01T08:36:38;23.90;48.50
21214;DHT22;10764;50.850;2.904;2022-09-01T08:39:05;23.80;48.50
21214;DHT22;10764;50.850;2.904;2022-09-01T08:41:42;23.90;49.20
21214;DHT22;10764;50.850;2.904;2022-09-01T08:47:03;23.90;49.30
21214;DHT22;10764;50.850;2.904;2022-09-01T08:49:33;24.20;49.50
21214;DHT22;10764;50.850;2.904;2022-09-01T08:52:35;23.90;49.40
21214;DHT22;10764;50.850;2.904;2022-09-01T08:55:15;23.60;49.30
21214;DHT22;10764;50.850;2.904;2022-09-01T08:57:44;23.90;49.50
21214;DHT22;10764;50.850;2.904;2022-09-01T09:00:23;23.90;49.00
21214;DHT22;10764;50.850;2.904;2022-09-01T09:03:16;24.00;49.70
21214;DHT22;10764;50.850;2.904;2022-09-01T09:09:12;24.00;49.80
21214;DHT22;10764;50.850;2.904;2022-09-01T09:14:34;24.00;49.20
21214;DHT22;10764;50.850;2.904;2022-09-01T09:17:04;24.10;49.90
21214;DHT22;10764;50.850;2.904;2022-09-01T09:19:35;24.10;50.00
21214;DHT22;10764;50.850;2.904;2022-09-01T09:22:08;24.00;49.90
21214;DHT22;10764;50.850;2.904;2022-09-01T09:25:11;24.00;49.80
21214;DHT22;10764;50.850;2.904;2022-09-01T09:27:47;24.10;49.60
21214;DHT22;10764;50.850;2.904;2022-09-01T09:30:20;24.00;49.50
21214;DHT22;10764;50.850;2.904;2022-09-01T09:32:53;24.00;48.70
21214;DHT22;10764;50.850;2.904;2022-09-01T09:35:46;24.00;49.40
21214;DHT22;10764;50.850;2.904;2022-09-01T09:43:57;24.10;49.20
21214;DHT22;10764;50.850;2.904;2022-09-01T09:46:44;24.00;49.10
21214;DHT22;10764;50.850;2.904;2022-09-01T09:49:31;24.10;49.30
21214;DHT22;10764;50.850;2.904;2022-09-01T09:54:38;24.10;49.20
21214;DHT22;10764;50.850;2.904;2022-09-01T10:00:00;24.10;49.20
21214;DHT22;10764;50.850;2.904;2022-09-01T10:02:31;24.10;48.50
21214;DHT22;10764;50.850;2.904;2022-09-01T10:05:01;24.10;48.50
21214;DHT22;10764;50.850;2.904;2022-09-01T10:07:47;24.10;49.00
21214;DHT22;10764;50.850;2.904;2022-09-01T10:12:55;24.10;49.00
21214;DHT22;10764;50.850;2.904;2022-09-01T10:15:25;24.10;49.00
21214;DHT22;10764;50.850;2.904;2022-09-01T10:18:01;24.10;49.00
21214;DHT22;10764;50.850;2.904;2022-09-01T10:20:59;24.10;48.30
21214;DHT22;10764;50.850;2.904;2022-09-01T10:23:29;24.10;49.00
21214;DHT22;10764;50.850;2.904;2022-09-01T10:26:52;23.90;48.80
21214;DHT22;10764;50.850;2.904;2022-09-01T10:29:15;24.10;48.90
21214;DHT22;10764;50.850;2.904;2022-09-01T10:31:44;24.10;48.90
21214;DHT22;10764;50.850;2.904;2022-09-01T10:34:14;24.10;48.40
21214;DHT22;10764;50.850;2.904;2022-09-01T10:36:47;24.10;48.40
21214;DHT22;10764;50.850;2.904;2022-09-01T10:39:22;24.20;49.10
21214;DHT22;10764;50.850;2.904;2022-09-01T10:41:57;24.20;48.50
21214;DHT22;10764;50.850;2.904;2022-09-01T10:44:34;24.20;48.50
21214;DHT22;10764;50.850;2.904;2022-09-01T10:49:58;24.20;48.50
21214;DHT22;10764;50.850;2.904;2022-09-01T10:55:30;24.20;49.20
21214;DHT22;10764;50.850;2.904;2022-09-01T10:58:34;24.20;49.00
21214;DHT22;10764;50.850;2.904;2022-09-01T11:10:29;24.20;49.00
21214;DHT22;10764;50.850;2.904;2022-09-01T11:13:20;24.20;48.30
21214;DHT22;10764;50.850;2.904;2022-09-01T11:15:49;24.20;48.90
21214;DHT22;10764;50.850;2.904;2022-09-01T11:18:28;24.20;48.30
21214;DHT22;10764;50.850;2.904;2022-09-01T11:21:18;24.10;48.30
21214;DHT22;10764;50.850;2.904;2022-09-01T11:23:47;23.90;48.80
21214;DHT22;10764;50.850;2.904;2022-09-01T11:29:01;24.10;48.40
21214;DHT22;10764;50.850;2.904;2022-09-01T11:31:31;24.00;49.10
21214;DHT22;10764;50.850;2.904;2022-09-01T11:34:10;24.00;48.30
21214;DHT22;10764;50.850;2.904;2022-09-01T11:41:53;24.80;49.60
21214;DHT22;10764;50.850;2.904;2022-09-01T11:47:05;24.10;48.30
21214;DHT22;10764;50.850;2.904;2022-09-01T11:49:56;24.00;48.30
21214;DHT22;10764;50.850;2.904;2022-09-01T11:52:31;24.00;48.90
21214;DHT22;10764;50.850;2.904;2022-09-01T11:55:01;24.10;48.30
21214;DHT22;10764;50.850;2.904;2022-09-01T11:57:34;24.10;48.20
21214;DHT22;10764;50.850;2.904;2022-09-01T12:00:11;24.10;48.20
21214;DHT22;10764;50.850;2.904;2022-09-01T12:02:45;24.00;48.10
21214;DHT22;10764;50.850;2.904;2022-09-01T12:05:32;24.00;48.90
21214;DHT22;10764;50.850;2.904;2022-09-01T12:08:02;24.00;48.10
21214;DHT22;10764;50.850;2.904;2022-09-01T12:10:35;27.20;50.00
21214;DHT22;10764;50.850;2.904;2022-09-01T12:13:07;24.00;48.80
21214;DHT22;10764;50.850;2.904;2022-09-01T12:15:36;24.00;48.70
21214;DHT22;10764;50.850;2.904;2022-09-01T12:18:31;24.00;48.00
21214;DHT22;10764;50.850;2.904;2022-09-01T12:21:00;24.00;48.00
21214;DHT22;10764;50.850;2.904;2022-09-01T12:23:34;24.00;47.90
21214;DHT22;10764;50.850;2.904;2022-09-01T12:26:07;24.00;48.60
21214;DHT22;10764;50.850;2.904;2022-09-01T12:31:07;24.00;47.90
21214;DHT22;10764;50.850;2.904;2022-09-01T12:36:28;24.00;47.80
21214;DHT22;10764;50.850;2.904;2022-09-01T12:41:45;24.00;48.40
21214;DHT22;10764;50.850;2.904;2022-09-01T12:44:30;24.00;48.50
21214;DHT22;10764;50.850;2.904;2022-09-01T12:47:00;24.00;48.50
21214;DHT22;10764;50.850;2.904;2022-09-01T12:49:37;24.00;48.50
21214;DHT22;10764;50.850;2.904;2022-09-01T12:57:28;24.10;48.00
21214;DHT22;10764;50.850;2.904;2022-09-01T13:00:25;24.00;47.90
21214;DHT22;10764;50.850;2.904;2022-09-01T13:05:38;23.90;47.80
21214;DHT22;10764;50.850;2.904;2022-09-01T13:08:13;23.80;46.80
21214;DHT22;10764;50.850;2.904;2022-09-01T13:10:51;23.70;46.60
21214;DHT22;10764;50.850;2.904;2022-09-01T13:13:20;23.60;46.70
21214;DHT22;10764;50.850;2.904;2022-09-01T13:15:49;23.50;45.50
21214;DHT22;10764;50.850;2.904;2022-09-01T13:18:18;23.40;44.90
21214;DHT22;10764;50.850;2.904;2022-09-01T13:20:45;23.40;45.20
21214;DHT22;10764;50.850;2.904;2022-09-01T13:25:39;23.20;43.60
21214;DHT22;10764;50.850;2.904;2022-09-01T13:28:10;23.30;43.40
21214;DHT22;10764;50.850;2.904;2022-09-01T13:30:38;23.20;43.00
21214;DHT22;10764;50.850;2.904;2022-09-01T13:33:06;23.20;42.80
21214;DHT22;10764;50.850;2.904;2022-09-01T13:35:50;23.20;42.60
21214;DHT22;10764;50.850;2.904;2022-09-01T13:38:18;23.20;43.00
21214;DHT22;10764;50.850;2.904;2022-09-01T13:40:46;23.10;42.10
21214;DHT22;10764;50.850;2.904;2022-09-01T13:43:15;23.10;42.70
21214;DHT22;10764;50.850;2.904;2022-09-01T13:45:42;23.30;43.00
21214;DHT22;10764;50.850;2.904;2022-09-01T13:48:11;23.20;42.80
21214;DHT22;10764;50.850;2.904;2022-09-01T13:50:47;23.20;43.70
21214;DHT22;10764;50.850;2.904;2022-09-01T13:53:38;23.10;43.30
21214;DHT22;10764;50.850;2.904;2022-09-01T13:56:05;23.20;43.60
21214;DHT22;10764;50.850;2.904;2022-09-01T14:00:59;23.10;44.10
21214;DHT22;10764;50.850;2.904;2022-09-01T14:03:27;23.20;44.20
21214;DHT22;10764;50.850;2.904;2022-09-01T14:05:57;23.20;44.50
21214;DHT22;10764;50.850;2.904;2022-09-01T14:10:52;23.20;44.70
21214;DHT22;10764;50.850;2.904;2022-09-01T14:13:23;23.20;44.90
21214;DHT22;10764;50.850;2.904;2022-09-01T14:18:20;23.10;45.00
21214;DHT22;10764;50.850;2.904;2022-09-01T14:20:50;23.10;45.20
21214;DHT22;10764;50.850;2.904;2022-09-01T14:23:18;23.10;46.10
21214;DHT22;10764;50.850;2.904;2022-09-01T14:25:50;23.10;46.00
21214;DHT22;10764;50.850;2.904;2022-09-01T14:28:18;23.10;45.40
21214;DHT22;10764;50.850;2.904;2022-09-01T14:33:15;23.00;45.00
21214;DHT22;10764;50.850;2.904;2022-09-01T14:35:45;23.00;44.60
21214;DHT22;10764;50.850;2.904;2022-09-01T14:38:13;23.00;44.20
21214;DHT22;10764;50.850;2.904;2022-09-01T14:40:41;23.00;44.90
21214;DHT22;10764;50.850;2.904;2022-09-01T14:43:10;23.00;43.60
21214;DHT22;10764;50.850;2.904;2022-09-01T14:45:41;23.00;43.50
21214;DHT22;10764;50.850;2.904;2022-09-01T14:48:15;23.00;43.50
21214;DHT22;10764;50.850;2.904;2022-09-01T14:50:46;26.30;45.90
21214;DHT22;10764;50.850;2.904;2022-09-01T14:53:14;23.10;44.20
21214;DHT22;10764;50.850;2.904;2022-09-01T14:55:41;23.10;43.50
21214;DHT22;10764;50.850;2.904;2022-09-01T14:58:10;23.20;43.70
21214;DHT22;10764;50.850;2.904;2022-09-01T15:00:36;23.30;44.00
21214;DHT22;10764;50.850;2.904;2022-09-01T15:03:08;23.40;44.20
21214;DHT22;10764;50.850;2.904;2022-09-01T15:05:36;24.80;45.90
21214;DHT22;10764;50.850;2.904;2022-09-01T15:08:07;23.30;44.40
21214;DHT22;10764;50.850;2.904;2022-09-01T15:10:34;25.00;46.00
21214;DHT22;10764;50.850;2.904;2022-09-01T15:13:02;23.40;44.80
21214;DHT22;10764;50.850;2.904;2022-09-01T15:15:29;23.50;45.00
21214;DHT22;10764;50.850;2.904;2022-09-01T15:17:57;23.40;45.80
21214;DHT22;10764;50.850;2.904;2022-09-01T15:20:25;23.40;45.00
21214;DHT22;10764;50.850;2.904;2022-09-01T15:23:13;23.50;45.10
21214;DHT22;10764;50.850;2.904;2022-09-01T15:25:41;23.50;45.20
21214;DHT22;10764;50.850;2.904;2022-09-01T15:28:08;23.50;45.30
21214;DHT22;10764;50.850;2.904;2022-09-01T15:30:35;23.60;45.40
21214;DHT22;10764;50.850;2.904;2022-09-01T15:33:03;23.60;46.30
21214;DHT22;10764;50.850;2.904;2022-09-01T15:35:31;23.50;45.40
21214;DHT22;10764;50.850;2.904;2022-09-01T15:37:58;23.60;45.50
21214;DHT22;10764;50.850;2.904;2022-09-01T15:42:54;23.50;45.50
21214;DHT22;10764;50.850;2.904;2022-09-01T15:45:23;25.50;46.50
21214;DHT22;10764;50.850;2.904;2022-09-01T15:47:50;23.60;45.50
21214;DHT22;10764;50.850;2.904;2022-09-01T15:50:20;23.60;45.60
21214;DHT22;10764;50.850;2.904;2022-09-01T15:53:08;23.60;46.30
21214;DHT22;10764;50.850;2.904;2022-09-01T15:55:44;23.50;45.60
21214;DHT22;10764;50.850;2.904;2022-09-01T15:58:13;23.60;46.30
21214;DHT22;10764;50.850;2.904;2022-09-01T16:00:41;23.60;45.60
21214;DHT22;10764;50.850;2.904;2022-09-01T16:03:08;23.60;45.60
21214;DHT22;10764;50.850;2.904;2022-09-01T16:05:38;23.60;46.30
21214;DHT22;10764;50.850;2.904;2022-09-01T16:08:05;23.60;46.30
21214;DHT22;10764;50.850;2.904;2022-09-01T16:10:38;23.70;46.40
21214;DHT22;10764;50.850;2.904;2022-09-01T16:13:05;23.70;45.80
21214;DHT22;10764;50.850;2.904;2022-09-01T16:15:34;23.70;45.70
21214;DHT22;10764;50.850;2.904;2022-09-01T16:18:38;23.70;45.80
21214;DHT22;10764;50.850;2.904;2022-09-01T16:24:08;23.70;46.40
21214;DHT22;10764;50.850;2.904;2022-09-01T16:26:35;23.70;46.40
21214;DHT22;10764;50.850;2.904;2022-09-01T16:29:10;23.70;46.70
21214;DHT22;10764;50.850;2.904;2022-09-01T16:31:38;23.70;45.80
21214;DHT22;10764;50.850;2.904;2022-09-01T16:34:15;23.70;46.50
21214;DHT22;10764;50.850;2.904;2022-09-01T16:37:09;23.70;45.80
21214;DHT22;10764;50.850;2.904;2022-09-01T17:02:22;23.80;46.60
21214;DHT22;10764;50.850;2.904;2022-09-01T17:05:23;23.80;45.80
21214;DHT22;10764;50.850;2.904;2022-09-01T17:10:46;23.80;45.80
21214;DHT22;10764;50.850;2.904;2022-09-01T17:15:51;23.80;45.80
21214;DHT22;10764;50.850;2.904;2022-09-01T17:18:42;23.80;45.80
21214;DHT22;10764;50.850;2.904;2022-09-01T17:21:20;23.80;46.40
21214;DHT22;10764;50.850;2.904;2022-09-01T17:27:02;23.80;46.30
21214;DHT22;10764;50.850;2.904;2022-09-01T17:35:41;23.80;46.30
21214;DHT22;10764;50.850;2.904;2022-09-01T17:41:05;23.80;46.30
21214;DHT22;10764;50.850;2.904;2022-09-01T17:52:18;23.80;46.40
21214;DHT22;10764;50.850;2.904;2022-09-01T17:54:52;23.80;46.30
21214;DHT22;10764;50.850;2.904;2022-09-01T18:00:08;23.80;45.70
21214;DHT22;10764;50.850;2.904;2022-09-01T18:05:38;23.80;45.70
21214;DHT22;10764;50.850;2.904;2022-09-01T18:10:43;26.80;48.20
21214;DHT22;10764;50.850;2.904;2022-09-01T18:16:14;23.80;45.80
21214;DHT22;10764;50.850;2.904;2022-09-01T18:18:47;23.90;45.80
21214;DHT22;10764;50.850;2.904;2022-09-01T18:21:25;23.80;46.40
21214;DHT22;10764;50.850;2.904;2022-09-01T18:24:00;23.80;46.50
21214;DHT22;10764;50.850;2.904;2022-09-01T18:26:33;23.80;46.40
21214;DHT22;10764;50.850;2.904;2022-09-01T18:29:03;23.90;45.80
21214;DHT22;10764;50.850;2.904;2022-09-01T18:34:06;23.80;46.70
21214;DHT22;10764;50.850;2.904;2022-09-01T18:40:02;23.80;45.80
21214;DHT22;10764;50.850;2.904;2022-09-01T18:42:14;23.80;46.50
21214;DHT22;10764;50.850;2.904;2022-09-01T18:47:49;23.80;45.80
21214;DHT22;10764;50.850;2.904;2022-09-01T18:53:10;23.80;45.90
21214;DHT22;10764;50.850;2.904;2022-09-01T18:55:49;23.80;46.60
21214;DHT22;10764;50.850;2.904;2022-09-01T18:58:46;23.90;45.90
21214;DHT22;10764;50.850;2.904;2022-09-01T19:01:31;23.80;46.50
21214;DHT22;10764;50.850;2.904;2022-09-01T19:07:12;23.80;46.60
21214;DHT22;10764;50.850;2.904;2022-09-01T19:09:46;23.90;46.60